sensor_id;sensor_type;location;lat;lon;timestamp;P1;durP1;ratioP1;P2;durP2;ratioP2
8088;SDS011;57635;49.194;12.104;2023-04-09T00:01:12;22.27;;;18.30;;
8088;SDS011;57635;49.194;12.104;2023-04-09T00:03:40;14.67;;;13.00;;
8088;SDS011;57635;49.194;12.104;2023-04-09T00:06:09;14.00;;;12.57;;
8088;SDS011;57635;49.194;12.104;2023-04-09T00:08:37;14.67;;;12.80;;
8088;SDS011;57635;49.194;12.104;2023-04-09T00:11:05;14.13;;;12.73;;
8088;SDS011;57635;49.194;12.104;2023-04-09T00:13:33;12.23;;;11.03;;
8088;SDS011;57635;49.194;12.104;2023-04-09T00:16:04;13.53;;;12.17;;
8088;SDS011;57635;49.194;12.104;2023-04-09T00:18:32;14.30;;;13.00;;
8088;SDS011;57635;49.194;12.104;2023-04-09T00:21:01;13.63;;;12.47;;
8088;SDS011;57635;49.194;12.104;2023-04-09T00:23:30;13.17;;;12.00;;
8088;SDS011;57635;49.194;12.104;2023-04-09T00:25:57;12.57;;;11.00;;
8088;SDS011;57635;49.194;12.104;2023-04-09T00:28:25;12.90;;;11.70;;
8088;SDS011;57635;49.194;12.104;2023-04-09T00:30:53;13.20;;;12.00;;
8088;SDS011;57635;49.194;12.104;2023-04-09T00:33:20;13.77;;;12.57;;
8088;SDS011;57635;49.194;12.104;2023-04-09T00:35:48;13.37;;;12.13;;
8088;SDS011;57635;49.194;12.104;2023-04-09T00:38:16;12.60;;;11.50;;
8088;SDS011;57635;49.194;12.104;2023-04-09T00:40:47;13.30;;;12.10;;
8088;SDS011;57635;49.194;12.104;2023-04-09T00:43:15;13.33;;;12.13;;
8088;SDS011;57635;49.194;12.104;2023-04-09T00:45:43;22.90;;;20.50;;
8088;SDS011;57635;49.194;12.104;2023-04-09T00:48:11;24.43;;;21.13;;
8088;SDS011;57635;49.194;12.104;2023-04-09T00:50:39;19.57;;;17.63;;
8088;SDS011;57635;49.194;12.104;2023-04-09T00:53:08;17.33;;;15.63;;
8088;SDS011;57635;49.194;12.104;2023-04-09T00:55:38;14.80;;;13.30;;
8088;SDS011;57635;49.194;12.104;2023-04-09T00:58:07;13.80;;;12.40;;
8088;SDS011;57635;49.194;12.104;2023-04-09T01:00:35;12.37;;;11.17;;
8088;SDS011;57635;49.194;12.104;2023-04-09T01:03:03;12.20;;;11.20;;
8088;SDS011;57635;49.194;12.104;2023-04-09T01:05:33;12.33;;;11.13;;
8088;SDS011;57635;49.194;12.104;2023-04-09T01:08:07;13.43;;;11.50;;
8088;SDS011;57635;49.194;12.104;2023-04-09T01:10:40;12.60;;;11.40;;
8088;SDS011;57635;49.194;12.104;2023-04-09T01:13:11;13.30;;;11.93;;
8088;SDS011;57635;49.194;12.104;2023-04-09T01:15:43;14.40;;;12.93;;
8088;SDS011;57635;49.194;12.104;2023-04-09T01:18:14;12.93;;;11.70;;
8088;SDS011;57635;49.194;12.104;2023-04-09T01:20:47;13.70;;;12.40;;
8088;SDS011;57635;49.194;12.104;2023-04-09T01:23:22;13.93;;;12.63;;
8088;SDS011;57635;49.194;12.104;2023-04-09T01:26:00;13.67;;;12.37;;
8088;SDS011;57635;49.194;12.104;2023-04-09T01:28:32;13.87;;;12.40;;
8088;SDS011;57635;49.194;12.104;2023-04-09T01:31:02;15.43;;;12.40;;
8088;SDS011;57635;49.194;12.104;2023-04-09T01:33:32;13.10;;;11.87;;
8088;SDS011;57635;49.194;12.104;2023-04-09T01:36:00;13.63;;;12.37;;
8088;SDS011;57635;49.194;12.104;2023-04-09T01:38:31;13.87;;;12.43;;
8088;SDS011;57635;49.194;12.104;2023-04-09T01:41:00;13.90;;;12.60;;
8088;SDS011;57635;49.194;12.104;2023-04-09T01:43:29;13.27;;;12.00;;
8088;SDS011;57635;49.194;12.104;2023-04-09T01:46:00;14.37;;;12.97;;
8088;SDS011;57635;49.194;12.104;2023-04-09T01:48:29;14.03;;;12.57;;
8088;SDS011;57635;49.194;12.104;2023-04-09T01:50:57;14.40;;;12.90;;
8088;SDS011;57635;49.194;12.104;2023-04-09T01:53:25;12.63;;;11.53;;
8088;SDS011;57635;49.194;12.104;2023-04-09T01:55:53;15.97;;;14.27;;
8088;SDS011;57635;49.194;12.104;2023-04-09T01:58:22;15.30;;;13.70;;
8088;SDS011;57635;49.194;12.104;2023-04-09T02:00:53;15.97;;;14.27;;
8088;SDS011;57635;49.194;12.104;2023-04-09T02:03:24;15.77;;;14.27;;
8088;SDS011;57635;49.194;12.104;2023-04-09T02:05:54;14.37;;;12.90;;
8088;SDS011;57635;49.194;12.104;2023-04-09T02:08:24;14.33;;;12.83;;
8088;SDS011;57635;49.194;12.104;2023-04-09T02:10:53;15.70;;;14.03;;
8088;SDS011;57635;49.194;12.104;2023-04-09T02:13:23;16.07;;;14.37;;
8088;SDS011;57635;49.194;12.104;2023-04-09T02:15:53;15.30;;;13.77;;
8088;SDS011;57635;49.194;12.104;2023-04-09T02:18:23;14.97;;;13.37;;
8088;SDS011;57635;49.194;12.104;2023-04-09T02:20:52;15.73;;;14.13;;
8088;SDS011;57635;49.194;12.104;2023-04-09T02:23:20;15.53;;;13.93;;
8088;SDS011;57635;49.194;12.104;2023-04-09T02:25:48;13.50;;;12.00;;
8088;SDS011;57635;49.194;12.104;2023-04-09T02:28:16;13.97;;;12.67;;
8088;SDS011;57635;49.194;12.104;2023-04-09T02:30:43;12.53;;;11.40;;
8088;SDS011;57635;49.194;12.104;2023-04-09T02:33:12;13.40;;;12.10;;
8088;SDS011;57635;49.194;12.104;2023-04-09T02:35:40;13.43;;;12.13;;
8088;SDS011;57635;49.194;12.104;2023-04-09T02:38:08;13.70;;;12.40;;
8088;SDS011;57635;49.194;12.104;2023-04-09T02:40:39;13.17;;;11.90;;
8088;SDS011;57635;49.194;12.104;2023-04-09T02:43:07;14.77;;;13.40;;
8088;SDS011;57635;49.194;12.104;2023-04-09T02:45:35;14.27;;;12.77;;
8088;SDS011;57635;49.194;12.104;2023-04-09T02:48:03;16.63;;;14.97;;
8088;SDS011;57635;49.194;12.104;2023-04-09T02:50:32;15.00;;;13.50;;
8088;SDS011;57635;49.194;12.104;2023-04-09T02:53:00;15.60;;;14.10;;
8088;SDS011;57635;49.194;12.104;2023-04-09T02:55:27;15.60;;;14.00;;
8088;SDS011;57635;49.194;12.104;2023-04-09T02:57:55;15.83;;;14.23;;
8088;SDS011;57635;49.194;12.104;2023-04-09T03:00:23;16.90;;;15.00;;
8088;SDS011;57635;49.194;12.104;2023-04-09T03:02:51;17.77;;;16.03;;
8088;SDS011;57635;49.194;12.104;2023-04-09T03:05:18;22.17;;;16.67;;
8088;SDS011;57635;49.194;12.104;2023-04-09T03:07:48;20.87;;;16.97;;
8088;SDS011;57635;49.194;12.104;2023-04-09T03:10:15;18.87;;;16.77;;
8088;SDS011;57635;49.194;12.104;2023-04-09T03:12:43;15.90;;;14.40;;
8088;SDS011;57635;49.194;12.104;2023-04-09T03:15:13;16.20;;;14.50;;
8088;SDS011;57635;49.194;12.104;2023-04-09T03:17:40;15.37;;;13.87;;
8088;SDS011;57635;49.194;12.104;2023-04-09T03:20:08;14.47;;;12.97;;
8088;SDS011;57635;49.194;12.104;2023-04-09T03:22:36;15.50;;;13.83;;
8088;SDS011;57635;49.194;12.104;2023-04-09T03:25:06;13.73;;;12.43;;
8088;SDS011;57635;49.194;12.104;2023-04-09T03:27:35;19.77;;;13.77;;
8088;SDS011;57635;49.194;12.104;2023-04-09T03:30:02;15.23;;;13.73;;
8088;SDS011;57635;49.194;12.104;2023-04-09T03:32:31;16.87;;;15.13;;
8088;SDS011;57635;49.194;12.104;2023-04-09T03:34:58;16.70;;;14.60;;
8088;SDS011;57635;49.194;12.104;2023-04-09T03:37:26;14.77;;;13.27;;
8088;SDS011;57635;49.194;12.104;2023-04-09T03:39:54;16.03;;;14.43;;
8088;SDS011;57635;49.194;12.104;2023-04-09T03:42:23;14.87;;;13.37;;
8088;SDS011;57635;49.194;12.104;2023-04-09T03:44:52;16.13;;;14.40;;
8088;SDS011;57635;49.194;12.104;2023-04-09T03:47:20;17.07;;;15.33;;
8088;SDS011;57635;49.194;12.104;2023-04-09T03:49:47;15.83;;;14.23;;
8088;SDS011;57635;49.194;12.104;2023-04-09T03:52:15;16.93;;;15.13;;
8088;SDS011;57635;49.194;12.104;2023-04-09T03:54:43;16.20;;;14.60;;
8088;SDS011;57635;49.194;12.104;2023-04-09T03:57:11;19.63;;;17.07;;
8088;SDS011;57635;49.194;12.104;2023-04-09T03:59:40;18.90;;;16.17;;
8088;SDS011;57635;49.194;12.104;2023-04-09T04:02:08;19.30;;;17.30;;
8088;SDS011;57635;49.194;12.104;2023-04-09T04:04:36;20.43;;;17.17;;
8088;SDS011;57635;49.194;12.104;2023-04-09T04:07:03;18.83;;;16.83;;
8088;SDS011;57635;49.194;12.104;2023-04-09T04:09:31;17.00;;;15.20;;
8088;SDS011;57635;49.194;12.104;2023-04-09T04:11:59;18.50;;;16.60;;
8088;SDS011;57635;49.194;12.104;2023-04-09T04:14:28;22.02;;;19.63;;
8088;SDS011;57635;49.194;12.104;2023-04-09T04:16:57;19.33;;;17.33;;
8088;SDS011;57635;49.194;12.104;2023-04-09T04:19:25;18.27;;;16.47;;
8088;SDS011;57635;49.194;12.104;2023-04-09T04:21:53;18.17;;;16.20;;
8088;SDS011;57635;49.194;12.104;2023-04-09T04:24:21;17.33;;;15.63;;
8088;SDS011;57635;49.194;12.104;2023-04-09T04:26:48;17.80;;;13.97;;
8088;SDS011;57635;49.194;12.104;2023-04-09T04:29:16;17.93;;;16.10;;
8088;SDS011;57635;49.194;12.104;2023-04-09T04:31:44;18.27;;;16.40;;
8088;SDS011;57635;49.194;12.104;2023-04-09T04:34:13;17.87;;;15.93;;
8088;SDS011;57635;49.194;12.104;2023-04-09T04:36:41;18.63;;;16.50;;
8088;SDS011;57635;49.194;12.104;2023-04-09T04:39:09;16.97;;;15.17;;
8088;SDS011;57635;49.194;12.104;2023-04-09T04:41:37;17.00;;;15.27;;
8088;SDS011;57635;49.194;12.104;2023-04-09T04:44:05;17.67;;;14.87;;
8088;SDS011;57635;49.194;12.104;2023-04-09T04:46:33;16.43;;;14.83;;
8088;SDS011;57635;49.194;12.104;2023-04-09T04:49:00;17.00;;;15.40;;
8088;SDS011;57635;49.194;12.104;2023-04-09T04:51:30;16.30;;;14.70;;
8088;SDS011;57635;49.194;12.104;2023-04-09T04:53:58;16.83;;;15.13;;
8088;SDS011;57635;49.194;12.104;2023-04-09T04:56:26;17.97;;;16.07;;
8088;SDS011;57635;49.194;12.104;2023-04-09T04:58:53;18.43;;;16.53;;
8088;SDS011;57635;49.194;12.104;2023-04-09T05:01:22;16.93;;;15.23;;
8088;SDS011;57635;49.194;12.104;2023-04-09T05:03:49;16.47;;;14.77;;
8088;SDS011;57635;49.194;12.104;2023-04-09T05:06:17;19.20;;;17.13;;
8088;SDS011;57635;49.194;12.104;2023-04-09T05:08:46;18.67;;;16.40;;
8088;SDS011;57635;49.194;12.104;2023-04-09T05:11:14;17.77;;;15.93;;
8088;SDS011;57635;49.194;12.104;2023-04-09T05:13:42;17.80;;;16.00;;
8088;SDS011;57635;49.194;12.104;2023-04-09T05:16:14;16.20;;;14.60;;
8088;SDS011;57635;49.194;12.104;2023-04-09T05:18:43;18.20;;;16.30;;
8088;SDS011;57635;49.194;12.104;2023-04-09T05:21:11;17.67;;;15.87;;
8088;SDS011;57635;49.194;12.104;2023-04-09T05:23:39;17.60;;;15.83;;
8088;SDS011;57635;49.194;12.104;2023-04-09T05:26:09;18.47;;;16.53;;
8088;SDS011;57635;49.194;12.104;2023-04-09T05:28:36;17.13;;;15.33;;
8088;SDS011;57635;49.194;12.104;2023-04-09T05:31:04;17.83;;;16.17;;
8088;SDS011;57635;49.194;12.104;2023-04-09T05:33:37;18.20;;;16.40;;
8088;SDS011;57635;49.194;12.104;2023-04-09T05:36:04;18.27;;;16.37;;
8088;SDS011;57635;49.194;12.104;2023-04-09T05:38:33;17.37;;;15.60;;
8088;SDS011;57635;49.194;12.104;2023-04-09T05:41:01;16.90;;;15.10;;
8088;SDS011;57635;49.194;12.104;2023-04-09T05:43:30;17.43;;;15.60;;
8088;SDS011;57635;49.194;12.104;2023-04-09T05:45:57;17.53;;;15.73;;
8088;SDS011;57635;49.194;12.104;2023-04-09T05:48:25;18.50;;;16.47;;
8088;SDS011;57635;49.194;12.104;2023-04-09T05:50:53;18.30;;;16.40;;
8088;SDS011;57635;49.194;12.104;2023-04-09T05:53:21;17.60;;;15.87;;
8088;SDS011;57635;49.194;12.104;2023-04-09T05:55:49;17.83;;;15.53;;
8088;SDS011;57635;49.194;12.104;2023-04-09T05:58:17;23.15;;;20.75;;
8088;SDS011;57635;49.194;12.104;2023-04-09T06:00:46;22.37;;;20.00;;
8088;SDS011;57635;49.194;12.104;2023-04-09T06:03:14;22.73;;;19.73;;
8088;SDS011;57635;49.194;12.104;2023-04-09T06:05:44;22.93;;;20.20;;
8088;SDS011;57635;49.194;12.104;2023-04-09T06:08:12;21.53;;;19.23;;
8088;SDS011;57635;49.194;12.104;2023-04-09T06:10:39;22.17;;;19.87;;
8088;SDS011;57635;49.194;12.104;2023-04-09T06:13:08;22.27;;;19.60;;
8088;SDS011;57635;49.194;12.104;2023-04-09T06:15:36;21.70;;;19.57;;
8088;SDS011;57635;49.194;12.104;2023-04-09T06:18:05;24.50;;;21.43;;
8088;SDS011;57635;49.194;12.104;2023-04-09T06:20:33;23.97;;;20.63;;
8088;SDS011;57635;49.194;12.104;2023-04-09T06:23:01;22.73;;;20.33;;
8088;SDS011;57635;49.194;12.104;2023-04-09T06:25:28;24.13;;;21.57;;
8088;SDS011;57635;49.194;12.104;2023-04-09T06:27:56;22.80;;;20.37;;
8088;SDS011;57635;49.194;12.104;2023-04-09T06:30:23;23.73;;;19.50;;
8088;SDS011;57635;49.194;12.104;2023-04-09T06:32:51;20.70;;;18.50;;
8088;SDS011;57635;49.194;12.104;2023-04-09T06:35:22;20.67;;;18.57;;
8088;SDS011;57635;49.194;12.104;2023-04-09T06:37:49;21.30;;;19.00;;
8088;SDS011;57635;49.194;12.104;2023-04-09T06:40:17;19.40;;;17.47;;
8088;SDS011;57635;49.194;12.104;2023-04-09T06:42:48;19.77;;;16.63;;
8088;SDS011;57635;49.194;12.104;2023-04-09T06:45:15;21.60;;;19.43;;
8088;SDS011;57635;49.194;12.104;2023-04-09T06:47:43;20.27;;;17.97;;
8088;SDS011;57635;49.194;12.104;2023-04-09T06:50:11;21.90;;;18.30;;
8088;SDS011;57635;49.194;12.104;2023-04-09T06:52:40;20.17;;;18.07;;
8088;SDS011;57635;49.194;12.104;2023-04-09T06:55:08;20.40;;;17.90;;
8088;SDS011;57635;49.194;12.104;2023-04-09T06:57:36;22.77;;;18.87;;
8088;SDS011;57635;49.194;12.104;2023-04-09T07:00:05;20.93;;;18.60;;
8088;SDS011;57635;49.194;12.104;2023-04-09T07:02:34;22.43;;;18.53;;
8088;SDS011;57635;49.194;12.104;2023-04-09T07:05:02;21.70;;;18.90;;
8088;SDS011;57635;49.194;12.104;2023-04-09T07:07:31;21.37;;;19.17;;
8088;SDS011;57635;49.194;12.104;2023-04-09T07:10:00;19.20;;;17.33;;
8088;SDS011;57635;49.194;12.104;2023-04-09T07:12:27;25.77;;;23.33;;
8088;SDS011;57635;49.194;12.104;2023-04-09T07:14:56;25.23;;;22.98;;
8088;SDS011;57635;49.194;12.104;2023-04-09T07:17:24;21.17;;;19.13;;
8088;SDS011;57635;49.194;12.104;2023-04-09T07:19:52;19.10;;;17.20;;
8088;SDS011;57635;49.194;12.104;2023-04-09T07:22:20;20.53;;;18.50;;
8088;SDS011;57635;49.194;12.104;2023-04-09T07:24:48;19.97;;;17.87;;
8088;SDS011;57635;49.194;12.104;2023-04-09T07:27:20;17.90;;;16.00;;
8088;SDS011;57635;49.194;12.104;2023-04-09T07:29:48;19.13;;;17.13;;
8088;SDS011;57635;49.194;12.104;2023-04-09T07:32:16;19.03;;;17.07;;
8088;SDS011;57635;49.194;12.104;2023-04-09T07:34:44;19.63;;;17.63;;
8088;SDS011;57635;49.194;12.104;2023-04-09T07:37:11;19.83;;;17.67;;
8088;SDS011;57635;49.194;12.104;2023-04-09T07:39:39;19.60;;;17.57;;
8088;SDS011;57635;49.194;12.104;2023-04-09T07:42:07;22.00;;;18.37;;
8088;SDS011;57635;49.194;12.104;2023-04-09T07:44:36;21.43;;;19.20;;
8088;SDS011;57635;49.194;12.104;2023-04-09T07:47:05;22.13;;;18.53;;
8088;SDS011;57635;49.194;12.104;2023-04-09T07:49:34;21.70;;;19.50;;
8088;SDS011;57635;49.194;12.104;2023-04-09T07:52:02;21.50;;;19.23;;
8088;SDS011;57635;49.194;12.104;2023-04-09T07:54:31;21.03;;;18.77;;
8088;SDS011;57635;49.194;12.104;2023-04-09T07:56:59;21.70;;;19.50;;
8088;SDS011;57635;49.194;12.104;2023-04-09T07:59:27;22.33;;;19.87;;
8088;SDS011;57635;49.194;12.104;2023-04-09T08:01:58;22.63;;;20.33;;
8088;SDS011;57635;49.194;12.104;2023-04-09T08:04:25;22.27;;;19.87;;
8088;SDS011;57635;49.194;12.104;2023-04-09T08:06:53;21.23;;;18.97;;
8088;SDS011;57635;49.194;12.104;2023-04-09T08:09:21;21.60;;;19.30;;
8088;SDS011;57635;49.194;12.104;2023-04-09T08:11:49;22.03;;;19.63;;
8088;SDS011;57635;49.194;12.104;2023-04-09T08:14:17;22.33;;;19.93;;
8088;SDS011;57635;49.194;12.104;2023-04-09T08:16:45;20.90;;;18.73;;
8088;SDS011;57635;49.194;12.104;2023-04-09T08:19:15;21.00;;;18.77;;
8088;SDS011;57635;49.194;12.104;2023-04-09T08:21:44;21.27;;;19.07;;
8088;SDS011;57635;49.194;12.104;2023-04-09T08:24:14;23.33;;;20.63;;
8088;SDS011;57635;49.194;12.104;2023-04-09T08:26:42;21.20;;;19.10;;
8088;SDS011;57635;49.194;12.104;2023-04-09T08:29:10;21.97;;;19.67;;
8088;SDS011;57635;49.194;12.104;2023-04-09T08:31:38;22.50;;;19.27;;
8088;SDS011;57635;49.194;12.104;2023-04-09T08:34:06;22.60;;;20.20;;
8088;SDS011;57635;49.194;12.104;2023-04-09T08:36:35;22.73;;;20.30;;
8088;SDS011;57635;49.194;12.104;2023-04-09T08:39:03;21.30;;;19.10;;
8088;SDS011;57635;49.194;12.104;2023-04-09T08:41:31;23.70;;;20.07;;
8088;SDS011;57635;49.194;12.104;2023-04-09T08:43:58;20.93;;;18.80;;
8088;SDS011;57635;49.194;12.104;2023-04-09T08:46:26;23.37;;;20.20;;
8088;SDS011;57635;49.194;12.104;2023-04-09T08:48:54;23.70;;;21.17;;
8088;SDS011;57635;49.194;12.104;2023-04-09T08:51:22;23.30;;;20.80;;
8088;SDS011;57635;49.194;12.104;2023-04-09T08:53:54;22.37;;;20.00;;
8088;SDS011;57635;49.194;12.104;2023-04-09T08:56:22;21.87;;;19.77;;
8088;SDS011;57635;49.194;12.104;2023-04-09T08:58:50;22.23;;;19.10;;
8088;SDS011;57635;49.194;12.104;2023-04-09T09:01:19;22.17;;;19.80;;
8088;SDS011;57635;49.194;12.104;2023-04-09T09:03:51;21.17;;;18.97;;
8088;SDS011;57635;49.194;12.104;2023-04-09T09:06:21;21.83;;;19.53;;
8088;SDS011;57635;49.194;12.104;2023-04-09T09:09:01;21.27;;;19.23;;
8088;SDS011;57635;49.194;12.104;2023-04-09T09:11:30;20.03;;;18.03;;
8088;SDS011;57635;49.194;12.104;2023-04-09T09:13:58;19.23;;;17.27;;
8088;SDS011;57635;49.194;12.104;2023-04-09T09:16:27;20.40;;;18.30;;
8088;SDS011;57635;49.194;12.104;2023-04-09T09:18:55;20.70;;;18.60;;
8088;SDS011;57635;49.194;12.104;2023-04-09T09:21:23;20.23;;;18.27;;
8088;SDS011;57635;49.194;12.104;2023-04-09T09:23:52;18.70;;;16.83;;
8088;SDS011;57635;49.194;12.104;2023-04-09T09:26:22;18.97;;;17.23;;
8088;SDS011;57635;49.194;12.104;2023-04-09T09:28:51;18.13;;;16.33;;
8088;SDS011;57635;49.194;12.104;2023-04-09T09:31:19;18.90;;;17.07;;
8088;SDS011;57635;49.194;12.104;2023-04-09T09:33:48;19.07;;;17.17;;
8088;SDS011;57635;49.194;12.104;2023-04-09T09:36:29;17.87;;;16.20;;
8088;SDS011;57635;49.194;12.104;2023-04-09T09:38:58;18.00;;;16.10;;
8088;SDS011;57635;49.194;12.104;2023-04-09T09:41:30;18.60;;;16.90;;
8088;SDS011;57635;49.194;12.104;2023-04-09T09:43:58;17.73;;;16.03;;
8088;SDS011;57635;49.194;12.104;2023-04-09T09:46:26;18.33;;;16.57;;
8088;SDS011;57635;49.194;12.104;2023-04-09T09:48:53;18.30;;;16.63;;
8088;SDS011;57635;49.194;12.104;2023-04-09T09:51:24;17.73;;;15.93;;
8088;SDS011;57635;49.194;12.104;2023-04-09T09:53:54;19.43;;;17.43;;
8088;SDS011;57635;49.194;12.104;2023-04-09T09:56:23;18.30;;;16.50;;
8088;SDS011;57635;49.194;12.104;2023-04-09T09:59:03;15.77;;;14.30;;
8088;SDS011;57635;49.194;12.104;2023-04-09T10:01:33;15.90;;;14.40;;
8088;SDS011;57635;49.194;12.104;2023-04-09T10:04:03;16.23;;;14.63;;
8088;SDS011;57635;49.194;12.104;2023-04-09T10:06:32;16.10;;;14.70;;
8088;SDS011;57635;49.194;12.104;2023-04-09T10:09:03;18.47;;;16.70;;
8088;SDS011;57635;49.194;12.104;2023-04-09T10:11:32;16.40;;;14.67;;
8088;SDS011;57635;49.194;12.104;2023-04-09T10:14:01;16.93;;;15.33;;
8088;SDS011;57635;49.194;12.104;2023-04-09T10:16:30;16.57;;;14.93;;
8088;SDS011;57635;49.194;12.104;2023-04-09T10:18:58;17.43;;;15.07;;
8088;SDS011;57635;49.194;12.104;2023-04-09T10:21:32;17.90;;;16.20;;
8088;SDS011;57635;49.194;12.104;2023-04-09T10:24:03;17.27;;;15.60;;
8088;SDS011;57635;49.194;12.104;2023-04-09T10:26:33;17.67;;;15.97;;
8088;SDS011;57635;49.194;12.104;2023-04-09T10:29:04;16.97;;;15.40;;
8088;SDS011;57635;49.194;12.104;2023-04-09T10:31:47;15.70;;;14.20;;
8088;SDS011;57635;49.194;12.104;2023-04-09T10:34:15;16.53;;;14.93;;
8088;SDS011;57635;49.194;12.104;2023-04-09T10:36:44;16.87;;;15.13;;
8088;SDS011;57635;49.194;12.104;2023-04-09T10:39:13;17.17;;;15.57;;
8088;SDS011;57635;49.194;12.104;2023-04-09T10:41:41;16.13;;;14.73;;
8088;SDS011;57635;49.194;12.104;2023-04-09T10:44:19;16.70;;;15.20;;
8088;SDS011;57635;49.194;12.104;2023-04-09T10:46:48;17.73;;;16.13;;
8088;SDS011;57635;49.194;12.104;2023-04-09T10:49:17;16.57;;;14.97;;
8088;SDS011;57635;49.194;12.104;2023-04-09T10:52:00;17.70;;;15.90;;
8088;SDS011;57635;49.194;12.104;2023-04-09T10:54:41;16.50;;;15.00;;
8088;SDS011;57635;49.194;12.104;2023-04-09T10:57:20;17.10;;;15.50;;
8088;SDS011;57635;49.194;12.104;2023-04-09T10:59:50;16.53;;;15.03;;
8088;SDS011;57635;49.194;12.104;2023-04-09T11:05:29;18.03;;;16.23;;
8088;SDS011;57635;49.194;12.104;2023-04-09T11:08:05;19.73;;;17.57;;
8088;SDS011;57635;49.194;12.104;2023-04-09T11:10:34;17.00;;;15.30;;
8088;SDS011;57635;49.194;12.104;2023-04-09T11:13:02;17.17;;;15.47;;
8088;SDS011;57635;49.194;12.104;2023-04-09T11:15:33;17.10;;;15.40;;
8088;SDS011;57635;49.194;12.104;2023-04-09T11:18:01;14.70;;;13.43;;
8088;SDS011;57635;49.194;12.104;2023-04-09T11:20:29;18.17;;;16.53;;
8088;SDS011;57635;49.194;12.104;2023-04-09T11:23:00;14.57;;;13.27;;
8088;SDS011;57635;49.194;12.104;2023-04-09T11:25:29;15.43;;;14.03;;
8088;SDS011;57635;49.194;12.104;2023-04-09T11:27:58;15.03;;;13.73;;
8088;SDS011;57635;49.194;12.104;2023-04-09T11:30:26;16.00;;;14.50;;
8088;SDS011;57635;49.194;12.104;2023-04-09T11:32:55;16.73;;;15.03;;
8088;SDS011;57635;49.194;12.104;2023-04-09T11:35:23;15.27;;;13.80;;
8088;SDS011;57635;49.194;12.104;2023-04-09T11:37:51;14.93;;;13.53;;
8088;SDS011;57635;49.194;12.104;2023-04-09T11:40:19;14.37;;;13.07;;
8088;SDS011;57635;49.194;12.104;2023-04-09T11:42:48;13.80;;;12.40;;
8088;SDS011;57635;49.194;12.104;2023-04-09T11:45:17;14.00;;;12.80;;
8088;SDS011;57635;49.194;12.104;2023-04-09T11:47:46;13.77;;;12.57;;
8088;SDS011;57635;49.194;12.104;2023-04-09T11:50:15;12.90;;;11.70;;
8088;SDS011;57635;49.194;12.104;2023-04-09T11:52:43;12.87;;;11.73;;
8088;SDS011;57635;49.194;12.104;2023-04-09T11:55:11;12.77;;;11.67;;
8088;SDS011;57635;49.194;12.104;2023-04-09T11:57:50;12.53;;;11.53;;
8088;SDS011;57635;49.194;12.104;2023-04-09T12:00:18;13.27;;;12.10;;
8088;SDS011;57635;49.194;12.104;2023-04-09T12:02:47;13.47;;;12.23;;
8088;SDS011;57635;49.194;12.104;2023-04-09T12:05:23;12.00;;;11.00;;
8088;SDS011;57635;49.194;12.104;2023-04-09T12:07:55;12.23;;;11.17;;
8088;SDS011;57635;49.194;12.104;2023-04-09T12:10:25;11.50;;;10.50;;
8088;SDS011;57635;49.194;12.104;2023-04-09T12:12:54;11.87;;;10.90;;
8088;SDS011;57635;49.194;12.104;2023-04-09T12:15:29;11.10;;;10.10;;
8088;SDS011;57635;49.194;12.104;2023-04-09T12:17:58;12.63;;;11.53;;
8088;SDS011;57635;49.194;12.104;2023-04-09T12:20:28;12.30;;;11.23;;
8088;SDS011;57635;49.194;12.104;2023-04-09T12:22:57;11.83;;;10.90;;
8088;SDS011;57635;49.194;12.104;2023-04-09T12:25:26;11.73;;;10.73;;
8088;SDS011;57635;49.194;12.104;2023-04-09T12:27:54;12.40;;;11.40;;
8088;SDS011;57635;49.194;12.104;2023-04-09T12:30:22;13.13;;;12.00;;
8088;SDS011;57635;49.194;12.104;2023-04-09T12:32:50;12.80;;;11.57;;
8088;SDS011;57635;49.194;12.104;2023-04-09T12:35:18;12.93;;;11.83;;
8088;SDS011;57635;49.194;12.104;2023-04-09T12:37:47;12.57;;;11.47;;
8088;SDS011;57635;49.194;12.104;2023-04-09T12:40:16;11.80;;;10.83;;
8088;SDS011;57635;49.194;12.104;2023-04-09T12:42:44;12.93;;;11.93;;
8088;SDS011;57635;49.194;12.104;2023-04-09T12:45:13;12.57;;;11.47;;
8088;SDS011;57635;49.194;12.104;2023-04-09T12:47:42;12.80;;;11.70;;
8088;SDS011;57635;49.194;12.104;2023-04-09T12:50:10;12.87;;;11.77;;
8088;SDS011;57635;49.194;12.104;2023-04-09T12:52:38;13.73;;;12.57;;
8088;SDS011;57635;49.194;12.104;2023-04-09T12:55:08;12.73;;;11.60;;
8088;SDS011;57635;49.194;12.104;2023-04-09T12:57:36;14.00;;;12.77;;
8088;SDS011;57635;49.194;12.104;2023-04-09T13:00:05;13.07;;;11.90;;
8088;SDS011;57635;49.194;12.104;2023-04-09T13:02:34;13.97;;;12.67;;
8088;SDS011;57635;49.194;12.104;2023-04-09T13:05:02;13.30;;;12.20;;
8088;SDS011;57635;49.194;12.104;2023-04-09T13:07:30;13.87;;;12.67;;
8088;SDS011;57635;49.194;12.104;2023-04-09T13:09:58;12.50;;;11.40;;
8088;SDS011;57635;49.194;12.104;2023-04-09T13:12:27;13.13;;;12.03;;
8088;SDS011;57635;49.194;12.104;2023-04-09T13:14:55;13.70;;;12.53;;
8088;SDS011;57635;49.194;12.104;2023-04-09T13:17:24;14.33;;;13.03;;
8088;SDS011;57635;49.194;12.104;2023-04-09T13:19:52;12.87;;;11.67;;
8088;SDS011;57635;49.194;12.104;2023-04-09T13:22:20;12.80;;;11.70;;
8088;SDS011;57635;49.194;12.104;2023-04-09T13:24:47;14.40;;;13.07;;
8088;SDS011;57635;49.194;12.104;2023-04-09T13:27:15;14.13;;;12.90;;
8088;SDS011;57635;49.194;12.104;2023-04-09T13:29:44;12.93;;;11.83;;
8088;SDS011;57635;49.194;12.104;2023-04-09T13:32:12;13.90;;;12.70;;
8088;SDS011;57635;49.194;12.104;2023-04-09T13:34:40;13.03;;;11.87;;
8088;SDS011;57635;49.194;12.104;2023-04-09T13:37:07;14.20;;;12.93;;
8088;SDS011;57635;49.194;12.104;2023-04-09T13:39:35;13.90;;;12.70;;
8088;SDS011;57635;49.194;12.104;2023-04-09T13:42:03;14.53;;;13.13;;
8088;SDS011;57635;49.194;12.104;2023-04-09T13:44:38;14.40;;;13.10;;
8088;SDS011;57635;49.194;12.104;2023-04-09T13:47:09;14.47;;;13.23;;
8088;SDS011;57635;49.194;12.104;2023-04-09T13:49:38;13.73;;;12.33;;
8088;SDS011;57635;49.194;12.104;2023-04-09T13:52:05;13.17;;;11.80;;
8088;SDS011;57635;49.194;12.104;2023-04-09T13:54:33;12.30;;;11.20;;
8088;SDS011;57635;49.194;12.104;2023-04-09T13:57:01;11.80;;;10.80;;
8088;SDS011;57635;49.194;12.104;2023-04-09T13:59:29;11.77;;;10.80;;
8088;SDS011;57635;49.194;12.104;2023-04-09T14:01:57;11.10;;;10.20;;
8088;SDS011;57635;49.194;12.104;2023-04-09T14:04:26;11.43;;;10.53;;
8088;SDS011;57635;49.194;12.104;2023-04-09T14:06:54;10.87;;;9.97;;
8088;SDS011;57635;49.194;12.104;2023-04-09T14:09:22;11.43;;;10.47;;
8088;SDS011;57635;49.194;12.104;2023-04-09T14:11:51;10.67;;;9.73;;
8088;SDS011;57635;49.194;12.104;2023-04-09T14:14:19;10.77;;;9.97;;
8088;SDS011;57635;49.194;12.104;2023-04-09T14:16:47;12.57;;;11.57;;
8088;SDS011;57635;49.194;12.104;2023-04-09T14:19:15;12.67;;;11.57;;
8088;SDS011;57635;49.194;12.104;2023-04-09T14:21:44;13.40;;;12.27;;
8088;SDS011;57635;49.194;12.104;2023-04-09T14:24:12;13.67;;;12.43;;
8088;SDS011;57635;49.194;12.104;2023-04-09T14:26:39;12.87;;;11.77;;
8088;SDS011;57635;49.194;12.104;2023-04-09T14:29:07;13.90;;;12.70;;
8088;SDS011;57635;49.194;12.104;2023-04-09T14:31:35;13.60;;;12.40;;
8088;SDS011;57635;49.194;12.104;2023-04-09T14:34:02;12.63;;;11.53;;